TWF - Joslin Fld/Magic Valley Rgnl

Pirep is a free, collaborative database of all public and private airports located within the United States. All pilots are welcome to contribute, edit, and improve any airport they have local knowledge about, no registration required.
Uploaded photos will be licensed under a CC BY-SA 4.0 license. Please only upload photos you have the rights to use.
Tags
Public
Food
Webcam
METAR / TAF
Flying Clubs
Edit Tags
Camping
Lodging
Car Rental
Bicycles
Swimming
Golfing
Fishing
Hot Springs
Museum
Airpark
Upcoming Events
No upcoming events. Is anything happening here soon?
*
*
*

Where exactly on/near the airport is this event taking place?

Is there a webpage with more information for this event?

Who should be contacted for more information?

What is this event all about?

Repeat every
Description
Last updated: 2023-05-19 21:51:53 MDT
Transient Parking
Fuel Location
Landing & Tie-down Fees
Crew Car Availability
Flying Clubs
Last updated: 2024-03-17 18:18:43 MDT
WiFi Access
Airport Statistics
Location: Twin Falls, ID
Elevation: 4,153ft
Sectional: Salt Lake City
Activation date: Feb 1948
Fuel: 100LL, A1+ (prices)
Runway 08/26: 8,704ft
Runway 12/30: 3,224ft
Access: Open to the public
Current Weather — VFR
  • Weather data is strictly informational and not for flight planning purposes.
  • METAR
    2024-05-24 17:53:00 MDT
    Ceiling Wind Temperature Dewpoint Weather Visbility
    Sky clear 340° @ 6kt 66°F 30°F N/A 10SM
    Raw: KTWF 242353Z 34006KT 10SM CLR 19/M01 A2976 RMK AO2 SLP050 T01891011 10211 20167 56018
  • TAF
    2024-05-24 18:00:00 MDT – 2024-05-24 23:00:00 MDT
    Ceiling Wind Weather Visbility
    Sky clear 360° @ 7kt N/A 6SM
    Clouds: Few @ 15,000ft
    Raw: KTWF 242320Z 2500/2524 36007KT P6SM FEW150 FM250500 VRB06KT P6SM SCT080 FM250900 25012KT P6SM BKN060 FM251100 27012G22KT P6SM -RA OVC040 FM251500 29015G26KT P6SM SCT070
  • TAF
    2024-05-24 23:00:00 MDT – 2024-05-25 03:00:00 MDT
    Ceiling Wind Weather Visbility
    Sky clear Variable N/A 6SM
    Clouds: Scattered @ 8,000ft
    Raw: KTWF 242320Z 2500/2524 36007KT P6SM FEW150 FM250500 VRB06KT P6SM SCT080 FM250900 25012KT P6SM BKN060 FM251100 27012G22KT P6SM -RA OVC040 FM251500 29015G26KT P6SM SCT070
  • TAF
    2024-05-25 03:00:00 MDT – 2024-05-25 05:00:00 MDT
    Ceiling Wind Weather Visbility
    6,000ft 250° @ 12kt N/A 6SM
    Clouds: Broken @ 6,000ft
    Raw: KTWF 242320Z 2500/2524 36007KT P6SM FEW150 FM250500 VRB06KT P6SM SCT080 FM250900 25012KT P6SM BKN060 FM251100 27012G22KT P6SM -RA OVC040 FM251500 29015G26KT P6SM SCT070
  • TAF
    2024-05-25 05:00:00 MDT – 2024-05-25 09:00:00 MDT
    Ceiling Wind Weather Visbility
    4,000ft 270° @ 12kt, gusts 22kt Light rain 6SM
    Clouds: Overcast @ 4,000ft
    Raw: KTWF 242320Z 2500/2524 36007KT P6SM FEW150 FM250500 VRB06KT P6SM SCT080 FM250900 25012KT P6SM BKN060 FM251100 27012G22KT P6SM -RA OVC040 FM251500 29015G26KT P6SM SCT070
  • TAF
    2024-05-25 09:00:00 MDT – 2024-05-25 18:00:00 MDT
    Ceiling Wind Weather Visbility
    Sky clear 290° @ 15kt, gusts 26kt N/A 6SM
    Clouds: Scattered @ 7,000ft
    Raw: KTWF 242320Z 2500/2524 36007KT P6SM FEW150 FM250500 VRB06KT P6SM SCT080 FM250900 25012KT P6SM BKN060 FM251100 27012G22KT P6SM -RA OVC040 FM251500 29015G26KT P6SM SCT070
Click/tap to add an annotation marker to the map
Airport Webcams
Direct links to live image URLs will be displayed inline on this page. URLs to separate webpages will be linked to.
URL:
Remarks
  • Ppr for unsked acr opns with more than 30 psgr seats call amgr 208-733-5215.
  • Ry 12/30 & twys g h j & k non-acr movement area.
  • No line of sight between apch end of ry 26 and apch end of ry 12.
  • For cd if una to ctc on fss freq, ctc salt lake artcc at 801-320-2568.
  • When atct clsd actvt hirl ry 08/26, malsr ry 26 & reil ry 08 - ctaf.
Comments
Leave a comment What was your experience like at this airport?